Terminal Aerodrome Forecast
Issued by NWS

Home | Current Version | Previous Version | Text Only | Print | Product List | Glossary On
Versions: 1 2 3 4 5 6 7 8 9 10 11 12 13 14 15
871
FTUS43 KICT 250520
TAFCNU
TAF
KCNU 250520Z 2506/2606 15007KT P6SM -SHRA VCTS SCT025 BKN040CB
      TEMPO 2506/2508 5SM TSRA SCT008 BKN015CB
     FM250800 VRB05KT P6SM VCSH SCT025 BKN050
      TEMPO 2508/2512 5SM BR BKN025
     FM251200 25007KT P6SM -SHRA VCTS SCT015 OVC035CB
     FM251900 35010KT P6SM SCT050
     FM260000 35007KT P6SM SKC=

USA.gov is the U.S. government's official web portal to all federal, state and local government web resources and services.